Terminal Aerodrome Forecast
Issued by NWS

Home | Current Version | Previous Version | Text Only | Print | Product List | Glossary On
Versions: 1 2 3 4 5 6 7 8 9 10 11 12 13 14 15 16 17 18 19 20 21 22 23 24
000
FTUS41 KOKX 281400 AAA
TAFHPN
TAF AMD
KHPN 281441Z 2815/2912 33012G17KT P6SM FEW050
     FM282200 32012KT P6SM FEW050
     FM290000 33008KT P6SM SKC
     FM290900 34006KT P6SM SKC
      AMD NOT SKED=

USA.gov is the U.S. government's official web portal to all federal, state and local government web resources and services.